sensor_id;sensor_type;location;lat;lon;timestamp;temperature;humidity
20291;DHT22;10304;51.074;13.754;2024-03-25T00:00:12;8.20;1.00
20291;DHT22;10304;51.074;13.754;2024-03-25T00:02:39;8.20;1.00
20291;DHT22;10304;51.074;13.754;2024-03-25T00:05:06;8.20;1.00
20291;DHT22;10304;51.074;13.754;2024-03-25T00:07:35;8.20;1.00
20291;DHT22;10304;51.074;13.754;2024-03-25T00:10:02;8.20;1.00
20291;DHT22;10304;51.074;13.754;2024-03-25T00:12:28;8.30;99.90
20291;DHT22;10304;51.074;13.754;2024-03-25T00:14:54;8.30;99.90
20291;DHT22;10304;51.074;13.754;2024-03-25T00:17:20;8.30;99.90
20291;DHT22;10304;51.074;13.754;2024-03-25T00:19:46;8.30;99.90
20291;DHT22;10304;51.074;13.754;2024-03-25T00:22:22;8.30;1.00
20291;DHT22;10304;51.074;13.754;2024-03-25T00:24:48;8.20;1.00
20291;DHT22;10304;51.074;13.754;2024-03-25T00:27:15;8.10;98.10
20291;DHT22;10304;51.074;13.754;2024-03-25T00:29:41;7.90;1.00
20291;DHT22;10304;51.074;13.754;2024-03-25T00:32:07;7.70;1.00
20291;DHT22;10304;51.074;13.754;2024-03-25T00:34:33;7.60;1.00
20291;DHT22;10304;51.074;13.754;2024-03-25T00:37:00;7.50;1.00
20291;DHT22;10304;51.074;13.754;2024-03-25T00:39:26;7.40;1.00
20291;DHT22;10304;51.074;13.754;2024-03-25T00:41:53;7.30;1.00
20291;DHT22;10304;51.074;13.754;2024-03-25T00:44:19;7.20;1.00
20291;DHT22;10304;51.074;13.754;2024-03-25T00:46:45;7.20;55.80
20291;DHT22;10304;51.074;13.754;2024-03-25T00:49:11;7.20;99.90
20291;DHT22;10304;51.074;13.754;2024-03-25T00:51:38;7.20;99.90
20291;DHT22;10304;51.074;13.754;2024-03-25T00:54:04;7.20;1.00
20291;DHT22;10304;51.074;13.754;2024-03-25T00:56:30;7.20;1.00
20291;DHT22;10304;51.074;13.754;2024-03-25T00:58:56;7.20;1.00
20291;DHT22;10304;51.074;13.754;2024-03-25T01:01:24;7.20;1.00
20291;DHT22;10304;51.074;13.754;2024-03-25T01:03:50;7.20;1.00
20291;DHT22;10304;51.074;13.754;2024-03-25T01:06:15;7.30;99.90
20291;DHT22;10304;51.074;13.754;2024-03-25T01:08:41;7.30;1.00
20291;DHT22;10304;51.074;13.754;2024-03-25T01:11:07;7.30;1.00
20291;DHT22;10304;51.074;13.754;2024-03-25T01:13:33;7.30;1.00
20291;DHT22;10304;51.074;13.754;2024-03-25T01:15:58;7.30;1.00
20291;DHT22;10304;51.074;13.754;2024-03-25T01:18:24;7.30;99.90
20291;DHT22;10304;51.074;13.754;2024-03-25T01:20:50;7.40;1.00
20291;DHT22;10304;51.074;13.754;2024-03-25T01:23:16;7.50;99.90
20291;DHT22;10304;51.074;13.754;2024-03-25T01:25:42;7.50;1.00
20291;DHT22;10304;51.074;13.754;2024-03-25T01:28:08;7.50;1.00
20291;DHT22;10304;51.074;13.754;2024-03-25T01:30:33;7.50;1.00
20291;DHT22;10304;51.074;13.754;2024-03-25T01:33:01;7.50;99.90
20291;DHT22;10304;51.074;13.754;2024-03-25T01:35:27;7.40;1.00
20291;DHT22;10304;51.074;13.754;2024-03-25T01:37:54;7.40;1.00
20291;DHT22;10304;51.074;13.754;2024-03-25T01:40:19;7.40;55.10
20291;DHT22;10304;51.074;13.754;2024-03-25T01:42:58;7.40;1.00
20291;DHT22;10304;51.074;13.754;2024-03-25T01:45:25;7.40;1.00
20291;DHT22;10304;51.074;13.754;2024-03-25T01:47:52;7.50;1.00
20291;DHT22;10304;51.074;13.754;2024-03-25T01:50:18;7.50;99.90
20291;DHT22;10304;51.074;13.754;2024-03-25T01:52:44;7.40;99.90
20291;DHT22;10304;51.074;13.754;2024-03-25T01:55:24;7.40;1.00
20291;DHT22;10304;51.074;13.754;2024-03-25T01:57:52;7.40;1.00
20291;DHT22;10304;51.074;13.754;2024-03-25T02:00:18;7.40;1.00
20291;DHT22;10304;51.074;13.754;2024-03-25T02:02:45;7.40;1.00
20291;DHT22;10304;51.074;13.754;2024-03-25T02:05:12;7.30;1.00
20291;DHT22;10304;51.074;13.754;2024-03-25T02:07:38;7.30;1.00
20291;DHT22;10304;51.074;13.754;2024-03-25T02:10:05;7.40;1.00
20291;DHT22;10304;51.074;13.754;2024-03-25T02:12:31;7.30;1.00
20291;DHT22;10304;51.074;13.754;2024-03-25T02:14:58;7.30;99.90
20291;DHT22;10304;51.074;13.754;2024-03-25T02:17:24;7.30;1.00
20291;DHT22;10304;51.074;13.754;2024-03-25T02:19:51;7.30;1.00
20291;DHT22;10304;51.074;13.754;2024-03-25T02:22:17;7.30;1.00
20291;DHT22;10304;51.074;13.754;2024-03-25T02:24:45;7.30;1.00
20291;DHT22;10304;51.074;13.754;2024-03-25T02:27:12;7.40;99.90
20291;DHT22;10304;51.074;13.754;2024-03-25T02:29:41;7.40;1.00
20291;DHT22;10304;51.074;13.754;2024-03-25T02:32:07;7.40;1.00
20291;DHT22;10304;51.074;13.754;2024-03-25T02:34:47;7.40;1.00
20291;DHT22;10304;51.074;13.754;2024-03-25T02:37:13;7.50;1.00
20291;DHT22;10304;51.074;13.754;2024-03-25T02:39:39;7.50;1.00
20291;DHT22;10304;51.074;13.754;2024-03-25T02:42:05;7.50;1.00
20291;DHT22;10304;51.074;13.754;2024-03-25T02:44:32;7.60;1.00
20291;DHT22;10304;51.074;13.754;2024-03-25T02:46:58;7.60;1.00
20291;DHT22;10304;51.074;13.754;2024-03-25T02:49:24;7.60;99.90
20291;DHT22;10304;51.074;13.754;2024-03-25T02:51:50;7.60;99.90
20291;DHT22;10304;51.074;13.754;2024-03-25T02:54:16;7.60;1.00
20291;DHT22;10304;51.074;13.754;2024-03-25T02:56:42;7.60;1.00
20291;DHT22;10304;51.074;13.754;2024-03-25T02:59:08;7.60;1.00
20291;DHT22;10304;51.074;13.754;2024-03-25T03:01:34;7.60;99.90
20291;DHT22;10304;51.074;13.754;2024-03-25T03:04:00;7.60;99.90
20291;DHT22;10304;51.074;13.754;2024-03-25T03:06:26;7.60;99.90
20291;DHT22;10304;51.074;13.754;2024-03-25T03:08:52;7.70;11.10
20291;DHT22;10304;51.074;13.754;2024-03-25T03:11:17;7.70;1.00
20291;DHT22;10304;51.074;13.754;2024-03-25T03:13:43;7.80;1.00
20291;DHT22;10304;51.074;13.754;2024-03-25T03:16:09;7.80;1.00
20291;DHT22;10304;51.074;13.754;2024-03-25T03:18:35;7.80;99.90
20291;DHT22;10304;51.074;13.754;2024-03-25T03:21:01;7.80;99.90
20291;DHT22;10304;51.074;13.754;2024-03-25T03:23:27;7.90;79.00
20291;DHT22;10304;51.074;13.754;2024-03-25T03:25:53;7.90;1.00
20291;DHT22;10304;51.074;13.754;2024-03-25T03:28:18;7.90;1.00
20291;DHT22;10304;51.074;13.754;2024-03-25T03:30:44;7.90;1.00
20291;DHT22;10304;51.074;13.754;2024-03-25T03:33:10;8.00;99.90
20291;DHT22;10304;51.074;13.754;2024-03-25T03:35:36;8.00;1.00
20291;DHT22;10304;51.074;13.754;2024-03-25T03:38:01;8.10;1.00
20291;DHT22;10304;51.074;13.754;2024-03-25T03:40:28;8.10;99.90
20291;DHT22;10304;51.074;13.754;2024-03-25T03:42:55;8.00;1.00
20291;DHT22;10304;51.074;13.754;2024-03-25T03:45:23;8.00;1.00
20291;DHT22;10304;51.074;13.754;2024-03-25T03:47:49;8.00;1.00
20291;DHT22;10304;51.074;13.754;2024-03-25T03:50:15;8.00;1.00
20291;DHT22;10304;51.074;13.754;2024-03-25T03:52:41;8.10;99.90
20291;DHT22;10304;51.074;13.754;2024-03-25T03:55:07;8.00;99.90
20291;DHT22;10304;51.074;13.754;2024-03-25T03:57:32;8.00;99.90
20291;DHT22;10304;51.074;13.754;2024-03-25T03:59:58;8.00;99.90
20291;DHT22;10304;51.074;13.754;2024-03-25T04:02:28;8.10;1.00
20291;DHT22;10304;51.074;13.754;2024-03-25T04:04:56;8.10;1.00
20291;DHT22;10304;51.074;13.754;2024-03-25T04:07:22;8.10;99.90
20291;DHT22;10304;51.074;13.754;2024-03-25T04:09:54;8.10;99.90
20291;DHT22;10304;51.074;13.754;2024-03-25T04:12:20;8.10;29.80
20291;DHT22;10304;51.074;13.754;2024-03-25T04:14:49;8.20;99.50
20291;DHT22;10304;51.074;13.754;2024-03-25T04:17:21;8.20;1.00
20291;DHT22;10304;51.074;13.754;2024-03-25T04:19:50;8.20;1.00
20291;DHT22;10304;51.074;13.754;2024-03-25T04:22:16;8.20;23.90
20291;DHT22;10304;51.074;13.754;2024-03-25T04:24:43;8.30;1.00
20291;DHT22;10304;51.074;13.754;2024-03-25T04:27:09;8.30;99.90
20291;DHT22;10304;51.074;13.754;2024-03-25T04:29:35;8.30;99.90
20291;DHT22;10304;51.074;13.754;2024-03-25T04:32:01;8.40;99.90
20291;DHT22;10304;51.074;13.754;2024-03-25T04:34:28;8.40;99.90
20291;DHT22;10304;51.074;13.754;2024-03-25T04:36:54;8.40;1.00
20291;DHT22;10304;51.074;13.754;2024-03-25T04:39:19;8.40;1.00
20291;DHT22;10304;51.074;13.754;2024-03-25T04:41:45;8.50;1.00
20291;DHT22;10304;51.074;13.754;2024-03-25T04:44:11;8.50;1.00
20291;DHT22;10304;51.074;13.754;2024-03-25T04:46:37;8.50;1.00
20291;DHT22;10304;51.074;13.754;2024-03-25T04:49:03;8.60;99.90
20291;DHT22;10304;51.074;13.754;2024-03-25T04:51:29;8.50;99.90
20291;DHT22;10304;51.074;13.754;2024-03-25T04:53:55;8.50;99.90
20291;DHT22;10304;51.074;13.754;2024-03-25T04:56:20;8.50;99.90
20291;DHT22;10304;51.074;13.754;2024-03-25T04:58:46;8.50;99.90
20291;DHT22;10304;51.074;13.754;2024-03-25T05:01:12;8.50;99.90
20291;DHT22;10304;51.074;13.754;2024-03-25T05:03:37;8.50;84.80
20291;DHT22;10304;51.074;13.754;2024-03-25T05:06:03;8.50;90.80
20291;DHT22;10304;51.074;13.754;2024-03-25T05:08:31;8.50;95.00
20291;DHT22;10304;51.074;13.754;2024-03-25T05:10:56;8.50;1.00
20291;DHT22;10304;51.074;13.754;2024-03-25T05:13:22;8.50;22.70
20291;DHT22;10304;51.074;13.754;2024-03-25T05:15:52;8.50;9.40
20291;DHT22;10304;51.074;13.754;2024-03-25T05:18:18;8.50;1.00
20291;DHT22;10304;51.074;13.754;2024-03-25T05:20:44;8.50;1.00
20291;DHT22;10304;51.074;13.754;2024-03-25T05:23:10;8.50;1.00
20291;DHT22;10304;51.074;13.754;2024-03-25T05:25:36;8.50;1.00
20291;DHT22;10304;51.074;13.754;2024-03-25T05:28:02;8.40;1.00
20291;DHT22;10304;51.074;13.754;2024-03-25T05:30:28;8.40;99.90
20291;DHT22;10304;51.074;13.754;2024-03-25T05:32:54;8.40;1.00
20291;DHT22;10304;51.074;13.754;2024-03-25T05:35:20;8.40;1.00
20291;DHT22;10304;51.074;13.754;2024-03-25T05:37:47;8.30;99.90
20291;DHT22;10304;51.074;13.754;2024-03-25T05:40:12;8.30;99.90
20291;DHT22;10304;51.074;13.754;2024-03-25T05:42:38;8.30;99.90
20291;DHT22;10304;51.074;13.754;2024-03-25T05:45:04;8.30;99.90
20291;DHT22;10304;51.074;13.754;2024-03-25T05:47:30;8.30;1.00
20291;DHT22;10304;51.074;13.754;2024-03-25T05:49:56;8.30;99.90
20291;DHT22;10304;51.074;13.754;2024-03-25T05:52:22;8.30;1.00
20291;DHT22;10304;51.074;13.754;2024-03-25T05:54:47;8.40;99.90
20291;DHT22;10304;51.074;13.754;2024-03-25T05:57:13;8.40;99.90
20291;DHT22;10304;51.074;13.754;2024-03-25T05:59:39;8.30;99.90
20291;DHT22;10304;51.074;13.754;2024-03-25T06:02:05;8.40;99.90
20291;DHT22;10304;51.074;13.754;2024-03-25T06:04:30;8.40;69.60
20291;DHT22;10304;51.074;13.754;2024-03-25T06:06:56;8.30;99.90
20291;DHT22;10304;51.074;13.754;2024-03-25T06:09:22;8.40;99.90
20291;DHT22;10304;51.074;13.754;2024-03-25T06:11:48;8.40;99.90
20291;DHT22;10304;51.074;13.754;2024-03-25T06:14:13;8.40;99.90
20291;DHT22;10304;51.074;13.754;2024-03-25T06:16:39;8.40;40.30
20291;DHT22;10304;51.074;13.754;2024-03-25T06:19:06;8.50;99.90
20291;DHT22;10304;51.074;13.754;2024-03-25T06:21:32;8.50;1.00
20291;DHT22;10304;51.074;13.754;2024-03-25T06:23:58;8.50;1.00
20291;DHT22;10304;51.074;13.754;2024-03-25T06:26:24;8.60;1.00
20291;DHT22;10304;51.074;13.754;2024-03-25T06:28:50;8.60;1.00
20291;DHT22;10304;51.074;13.754;2024-03-25T06:31:15;8.60;1.00
20291;DHT22;10304;51.074;13.754;2024-03-25T06:34:13;8.70;1.00
20291;DHT22;10304;51.074;13.754;2024-03-25T06:36:40;8.70;1.00
20291;DHT22;10304;51.074;13.754;2024-03-25T06:39:06;8.70;1.00
20291;DHT22;10304;51.074;13.754;2024-03-25T06:41:32;8.70;1.00
20291;DHT22;10304;51.074;13.754;2024-03-25T06:43:58;8.70;1.00
20291;DHT22;10304;51.074;13.754;2024-03-25T06:46:24;8.80;1.00
20291;DHT22;10304;51.074;13.754;2024-03-25T06:48:50;8.70;1.00
20291;DHT22;10304;51.074;13.754;2024-03-25T06:51:18;8.70;1.00
20291;DHT22;10304;51.074;13.754;2024-03-25T06:53:44;8.70;1.00
20291;DHT22;10304;51.074;13.754;2024-03-25T06:56:10;8.80;1.00
20291;DHT22;10304;51.074;13.754;2024-03-25T06:58:36;8.80;99.90
20291;DHT22;10304;51.074;13.754;2024-03-25T07:01:06;8.80;1.00
20291;DHT22;10304;51.074;13.754;2024-03-25T07:03:33;8.80;99.90
20291;DHT22;10304;51.074;13.754;2024-03-25T07:05:59;8.80;99.90
20291;DHT22;10304;51.074;13.754;2024-03-25T07:08:26;8.90;99.90
20291;DHT22;10304;51.074;13.754;2024-03-25T07:10:53;8.90;15.70
20291;DHT22;10304;51.074;13.754;2024-03-25T07:13:19;8.90;5.60
20291;DHT22;10304;51.074;13.754;2024-03-25T07:15:45;9.00;1.00
20291;DHT22;10304;51.074;13.754;2024-03-25T07:18:11;9.00;1.00
20291;DHT22;10304;51.074;13.754;2024-03-25T07:20:41;9.00;1.00
20291;DHT22;10304;51.074;13.754;2024-03-25T07:23:08;9.10;1.00
20291;DHT22;10304;51.074;13.754;2024-03-25T07:25:34;9.10;1.00
20291;DHT22;10304;51.074;13.754;2024-03-25T07:27:59;9.20;1.00
20291;DHT22;10304;51.074;13.754;2024-03-25T07:30:25;9.20;1.00
20291;DHT22;10304;51.074;13.754;2024-03-25T07:32:58;9.30;1.00
20291;DHT22;10304;51.074;13.754;2024-03-25T07:35:24;9.30;1.00
20291;DHT22;10304;51.074;13.754;2024-03-25T07:37:50;9.30;1.00
20291;DHT22;10304;51.074;13.754;2024-03-25T07:40:20;9.30;1.00
20291;DHT22;10304;51.074;13.754;2024-03-25T07:42:47;9.40;1.00
20291;DHT22;10304;51.074;13.754;2024-03-25T07:45:12;9.50;1.00
20291;DHT22;10304;51.074;13.754;2024-03-25T07:47:38;9.50;1.00
20291;DHT22;10304;51.074;13.754;2024-03-25T07:50:04;9.50;1.00
20291;DHT22;10304;51.074;13.754;2024-03-25T07:52:31;9.60;1.00
20291;DHT22;10304;51.074;13.754;2024-03-25T07:54:57;9.60;1.00
20291;DHT22;10304;51.074;13.754;2024-03-25T07:57:23;9.60;1.00
20291;DHT22;10304;51.074;13.754;2024-03-25T07:59:49;9.60;1.00
20291;DHT22;10304;51.074;13.754;2024-03-25T08:02:15;9.70;1.00
20291;DHT22;10304;51.074;13.754;2024-03-25T08:04:41;9.70;1.00
20291;DHT22;10304;51.074;13.754;2024-03-25T08:07:07;9.70;1.00
20291;DHT22;10304;51.074;13.754;2024-03-25T08:09:33;9.70;1.00
20291;DHT22;10304;51.074;13.754;2024-03-25T08:11:59;9.80;1.00
20291;DHT22;10304;51.074;13.754;2024-03-25T08:14:24;9.80;1.00
20291;DHT22;10304;51.074;13.754;2024-03-25T08:16:50;9.90;1.00
20291;DHT22;10304;51.074;13.754;2024-03-25T08:19:16;9.90;1.00
20291;DHT22;10304;51.074;13.754;2024-03-25T08:21:42;10.00;1.00
20291;DHT22;10304;51.074;13.754;2024-03-25T08:24:07;10.00;99.90
20291;DHT22;10304;51.074;13.754;2024-03-25T08:26:33;10.00;99.90
20291;DHT22;10304;51.074;13.754;2024-03-25T08:28:59;10.10;99.90
20291;DHT22;10304;51.074;13.754;2024-03-25T08:31:25;10.10;99.90
20291;DHT22;10304;51.074;13.754;2024-03-25T08:33:50;10.10;99.90
20291;DHT22;10304;51.074;13.754;2024-03-25T08:36:17;10.20;99.90
20291;DHT22;10304;51.074;13.754;2024-03-25T08:38:44;10.20;99.90
20291;DHT22;10304;51.074;13.754;2024-03-25T08:41:10;10.20;99.90
20291;DHT22;10304;51.074;13.754;2024-03-25T08:43:35;10.30;99.90
20291;DHT22;10304;51.074;13.754;2024-03-25T08:46:01;10.30;99.90
20291;DHT22;10304;51.074;13.754;2024-03-25T08:48:29;10.30;99.90
20291;DHT22;10304;51.074;13.754;2024-03-25T08:51:11;10.30;99.90
20291;DHT22;10304;51.074;13.754;2024-03-25T08:53:37;10.30;99.90
20291;DHT22;10304;51.074;13.754;2024-03-25T08:56:03;10.30;99.90
20291;DHT22;10304;51.074;13.754;2024-03-25T08:58:29;10.40;99.90
20291;DHT22;10304;51.074;13.754;2024-03-25T09:00:55;10.30;99.90
20291;DHT22;10304;51.074;13.754;2024-03-25T09:03:20;10.20;99.90
20291;DHT22;10304;51.074;13.754;2024-03-25T09:05:47;10.20;99.90
20291;DHT22;10304;51.074;13.754;2024-03-25T09:08:12;10.20;99.90
20291;DHT22;10304;51.074;13.754;2024-03-25T09:10:38;10.20;99.90
20291;DHT22;10304;51.074;13.754;2024-03-25T09:13:23;10.20;99.90
20291;DHT22;10304;51.074;13.754;2024-03-25T09:15:51;10.20;99.90
20291;DHT22;10304;51.074;13.754;2024-03-25T09:18:17;10.30;99.90
20291;DHT22;10304;51.074;13.754;2024-03-25T09:20:44;10.30;99.90
20291;DHT22;10304;51.074;13.754;2024-03-25T09:23:09;10.20;99.90
20291;DHT22;10304;51.074;13.754;2024-03-25T09:25:35;10.20;99.90
20291;DHT22;10304;51.074;13.754;2024-03-25T09:28:01;10.30;99.90
20291;DHT22;10304;51.074;13.754;2024-03-25T09:30:31;10.30;99.90
20291;DHT22;10304;51.074;13.754;2024-03-25T09:32:56;10.30;99.90
20291;DHT22;10304;51.074;13.754;2024-03-25T09:35:23;10.40;99.90
20291;DHT22;10304;51.074;13.754;2024-03-25T09:37:48;10.40;99.90
20291;DHT22;10304;51.074;13.754;2024-03-25T09:40:14;10.50;99.90
20291;DHT22;10304;51.074;13.754;2024-03-25T09:45:16;10.60;99.90
20291;DHT22;10304;51.074;13.754;2024-03-25T09:47:46;10.70;99.90
20291;DHT22;10304;51.074;13.754;2024-03-25T09:50:15;10.80;99.90
20291;DHT22;10304;51.074;13.754;2024-03-25T09:52:47;10.80;99.90
20291;DHT22;10304;51.074;13.754;2024-03-25T09:55:13;10.90;99.90
20291;DHT22;10304;51.074;13.754;2024-03-25T09:57:40;11.00;85.90
20291;DHT22;10304;51.074;13.754;2024-03-25T10:00:08;11.10;65.30
20291;DHT22;10304;51.074;13.754;2024-03-25T10:02:38;11.20;41.00
20291;DHT22;10304;51.074;13.754;2024-03-25T10:05:05;11.20;17.40
20291;DHT22;10304;51.074;13.754;2024-03-25T10:07:31;11.20;11.50
20291;DHT22;10304;51.074;13.754;2024-03-25T10:09:57;11.20;18.40
20291;DHT22;10304;51.074;13.754;2024-03-25T10:12:24;11.20;19.30
20291;DHT22;10304;51.074;13.754;2024-03-25T10:14:50;11.20;1.00
20291;DHT22;10304;51.074;13.754;2024-03-25T10:17:16;11.10;1.00
20291;DHT22;10304;51.074;13.754;2024-03-25T10:19:42;11.10;1.00
20291;DHT22;10304;51.074;13.754;2024-03-25T10:22:09;11.10;1.00
20291;DHT22;10304;51.074;13.754;2024-03-25T10:24:42;11.00;1.00
20291;DHT22;10304;51.074;13.754;2024-03-25T10:29:43;11.00;10.70
20291;DHT22;10304;51.074;13.754;2024-03-25T10:32:09;11.10;2.60
20291;DHT22;10304;51.074;13.754;2024-03-25T10:34:35;11.00;1.00
20291;DHT22;10304;51.074;13.754;2024-03-25T10:37:01;11.00;1.00
20291;DHT22;10304;51.074;13.754;2024-03-25T10:39:31;11.00;1.00
20291;DHT22;10304;51.074;13.754;2024-03-25T10:41:58;11.00;4.70
20291;DHT22;10304;51.074;13.754;2024-03-25T10:44:27;11.00;11.60
20291;DHT22;10304;51.074;13.754;2024-03-25T10:47:01;11.10;9.70
20291;DHT22;10304;51.074;13.754;2024-03-25T10:49:51;11.10;12.00
20291;DHT22;10304;51.074;13.754;2024-03-25T10:52:22;11.20;6.60
20291;DHT22;10304;51.074;13.754;2024-03-25T10:54:49;11.30;7.30
20291;DHT22;10304;51.074;13.754;2024-03-25T10:57:16;11.40;1.00
20291;DHT22;10304;51.074;13.754;2024-03-25T10:59:45;11.40;1.00
20291;DHT22;10304;51.074;13.754;2024-03-25T11:02:12;11.50;1.00
20291;DHT22;10304;51.074;13.754;2024-03-25T11:04:38;11.50;1.00
20291;DHT22;10304;51.074;13.754;2024-03-25T11:07:13;11.60;1.00
20291;DHT22;10304;51.074;13.754;2024-03-25T11:09:42;11.60;1.00
20291;DHT22;10304;51.074;13.754;2024-03-25T11:12:12;11.70;1.00
20291;DHT22;10304;51.074;13.754;2024-03-25T11:14:38;11.70;1.00
20291;DHT22;10304;51.074;13.754;2024-03-25T11:17:15;11.70;1.00
20291;DHT22;10304;51.074;13.754;2024-03-25T11:19:43;11.70;1.00
20291;DHT22;10304;51.074;13.754;2024-03-25T11:22:10;11.70;1.00
20291;DHT22;10304;51.074;13.754;2024-03-25T11:24:37;11.60;1.00
20291;DHT22;10304;51.074;13.754;2024-03-25T11:27:06;11.70;1.00
20291;DHT22;10304;51.074;13.754;2024-03-25T11:29:32;11.80;1.00
20291;DHT22;10304;51.074;13.754;2024-03-25T11:32:01;11.80;1.00
20291;DHT22;10304;51.074;13.754;2024-03-25T11:34:28;11.90;1.00
20291;DHT22;10304;51.074;13.754;2024-03-25T11:36:54;11.90;1.00
20291;DHT22;10304;51.074;13.754;2024-03-25T11:39:22;11.90;1.00
20291;DHT22;10304;51.074;13.754;2024-03-25T11:41:48;12.00;1.00
20291;DHT22;10304;51.074;13.754;2024-03-25T11:44:14;12.00;1.00
20291;DHT22;10304;51.074;13.754;2024-03-25T11:46:40;12.10;1.00
20291;DHT22;10304;51.074;13.754;2024-03-25T11:49:07;12.20;1.00
20291;DHT22;10304;51.074;13.754;2024-03-25T11:51:34;12.20;1.00
20291;DHT22;10304;51.074;13.754;2024-03-25T11:54:03;12.10;1.00
20291;DHT22;10304;51.074;13.754;2024-03-25T11:56:31;12.10;1.00
20291;DHT22;10304;51.074;13.754;2024-03-25T11:58:57;12.00;1.00
20291;DHT22;10304;51.074;13.754;2024-03-25T12:01:23;11.90;1.00
20291;DHT22;10304;51.074;13.754;2024-03-25T12:03:49;11.90;1.00
20291;DHT22;10304;51.074;13.754;2024-03-25T12:06:14;11.90;1.00
20291;DHT22;10304;51.074;13.754;2024-03-25T12:08:40;11.80;1.00
20291;DHT22;10304;51.074;13.754;2024-03-25T12:11:26;11.90;1.00
20291;DHT22;10304;51.074;13.754;2024-03-25T12:13:52;11.90;1.00
20291;DHT22;10304;51.074;13.754;2024-03-25T12:16:18;12.00;1.00
20291;DHT22;10304;51.074;13.754;2024-03-25T12:18:43;12.10;1.00
20291;DHT22;10304;51.074;13.754;2024-03-25T12:21:10;12.40;1.00
20291;DHT22;10304;51.074;13.754;2024-03-25T12:23:36;12.70;1.00
20291;DHT22;10304;51.074;13.754;2024-03-25T12:26:03;13.00;1.00
20291;DHT22;10304;51.074;13.754;2024-03-25T12:28:32;13.30;1.00
20291;DHT22;10304;51.074;13.754;2024-03-25T12:31:00;13.50;1.00
20291;DHT22;10304;51.074;13.754;2024-03-25T12:33:27;13.60;1.00
20291;DHT22;10304;51.074;13.754;2024-03-25T12:35:53;13.50;1.00
20291;DHT22;10304;51.074;13.754;2024-03-25T12:38:30;13.60;1.00
20291;DHT22;10304;51.074;13.754;2024-03-25T12:41:12;13.50;1.00
20291;DHT22;10304;51.074;13.754;2024-03-25T12:43:44;13.50;1.00
20291;DHT22;10304;51.074;13.754;2024-03-25T12:46:13;13.30;1.00
20291;DHT22;10304;51.074;13.754;2024-03-25T12:48:39;13.30;1.00
20291;DHT22;10304;51.074;13.754;2024-03-25T12:51:11;13.20;1.00
20291;DHT22;10304;51.074;13.754;2024-03-25T12:53:37;13.10;1.00
20291;DHT22;10304;51.074;13.754;2024-03-25T12:56:03;13.00;1.00
20291;DHT22;10304;51.074;13.754;2024-03-25T12:58:28;12.90;1.00
20291;DHT22;10304;51.074;13.754;2024-03-25T13:00:54;12.90;1.00
20291;DHT22;10304;51.074;13.754;2024-03-25T13:03:21;12.80;1.00
20291;DHT22;10304;51.074;13.754;2024-03-25T13:05:47;12.70;1.00
20291;DHT22;10304;51.074;13.754;2024-03-25T13:08:13;12.70;1.00
20291;DHT22;10304;51.074;13.754;2024-03-25T13:10:38;12.70;1.00
20291;DHT22;10304;51.074;13.754;2024-03-25T13:13:04;12.70;1.00
20291;DHT22;10304;51.074;13.754;2024-03-25T13:15:31;12.70;1.00
20291;DHT22;10304;51.074;13.754;2024-03-25T13:17:57;12.80;1.00
20291;DHT22;10304;51.074;13.754;2024-03-25T13:20:23;12.80;1.00
20291;DHT22;10304;51.074;13.754;2024-03-25T13:22:49;12.80;1.00
20291;DHT22;10304;51.074;13.754;2024-03-25T13:25:18;12.80;1.00
20291;DHT22;10304;51.074;13.754;2024-03-25T13:27:44;12.80;1.00
20291;DHT22;10304;51.074;13.754;2024-03-25T13:30:10;12.80;1.00
20291;DHT22;10304;51.074;13.754;2024-03-25T13:32:36;12.80;1.00
20291;DHT22;10304;51.074;13.754;2024-03-25T13:35:01;12.90;1.00
20291;DHT22;10304;51.074;13.754;2024-03-25T13:37:27;12.90;1.00
20291;DHT22;10304;51.074;13.754;2024-03-25T13:39:53;13.00;1.00
20291;DHT22;10304;51.074;13.754;2024-03-25T13:42:19;13.10;1.00
20291;DHT22;10304;51.074;13.754;2024-03-25T13:44:44;13.20;1.00
20291;DHT22;10304;51.074;13.754;2024-03-25T13:47:10;13.20;1.00
20291;DHT22;10304;51.074;13.754;2024-03-25T13:49:36;13.30;1.00
20291;DHT22;10304;51.074;13.754;2024-03-25T13:52:03;13.40;1.00
20291;DHT22;10304;51.074;13.754;2024-03-25T13:54:30;13.50;1.00
20291;DHT22;10304;51.074;13.754;2024-03-25T13:56:59;13.60;1.00
20291;DHT22;10304;51.074;13.754;2024-03-25T13:59:25;13.70;1.00
20291;DHT22;10304;51.074;13.754;2024-03-25T14:01:51;13.80;1.00
20291;DHT22;10304;51.074;13.754;2024-03-25T14:04:19;13.90;1.00
20291;DHT22;10304;51.074;13.754;2024-03-25T14:06:45;14.00;1.00
20291;DHT22;10304;51.074;13.754;2024-03-25T14:09:23;14.10;1.00
20291;DHT22;10304;51.074;13.754;2024-03-25T14:11:50;14.20;1.00
20291;DHT22;10304;51.074;13.754;2024-03-25T14:14:15;14.20;1.00
20291;DHT22;10304;51.074;13.754;2024-03-25T14:16:41;14.30;1.00
20291;DHT22;10304;51.074;13.754;2024-03-25T14:19:07;14.50;1.00
20291;DHT22;10304;51.074;13.754;2024-03-25T14:21:33;14.50;1.00
20291;DHT22;10304;51.074;13.754;2024-03-25T14:23:58;14.60;1.00
20291;DHT22;10304;51.074;13.754;2024-03-25T14:26:24;14.80;1.00
20291;DHT22;10304;51.074;13.754;2024-03-25T14:28:50;14.90;1.00
20291;DHT22;10304;51.074;13.754;2024-03-25T14:31:16;15.00;1.00
20291;DHT22;10304;51.074;13.754;2024-03-25T14:33:42;14.90;1.00
20291;DHT22;10304;51.074;13.754;2024-03-25T14:36:07;14.90;1.00
20291;DHT22;10304;51.074;13.754;2024-03-25T14:38:33;14.80;1.00
20291;DHT22;10304;51.074;13.754;2024-03-25T14:41:00;14.80;1.00
20291;DHT22;10304;51.074;13.754;2024-03-25T14:43:29;14.70;1.00
20291;DHT22;10304;51.074;13.754;2024-03-25T14:45:55;14.80;1.00
20291;DHT22;10304;51.074;13.754;2024-03-25T14:48:20;14.80;1.00
20291;DHT22;10304;51.074;13.754;2024-03-25T14:50:49;14.90;1.00
20291;DHT22;10304;51.074;13.754;2024-03-25T14:53:15;15.30;1.00
20291;DHT22;10304;51.074;13.754;2024-03-25T14:55:42;15.70;1.00
20291;DHT22;10304;51.074;13.754;2024-03-25T14:58:08;16.20;1.00
20291;DHT22;10304;51.074;13.754;2024-03-25T15:00:34;16.70;1.00
20291;DHT22;10304;51.074;13.754;2024-03-25T15:03:00;17.10;1.00
20291;DHT22;10304;51.074;13.754;2024-03-25T15:05:26;17.50;1.00
20291;DHT22;10304;51.074;13.754;2024-03-25T15:07:52;17.80;1.00
20291;DHT22;10304;51.074;13.754;2024-03-25T15:10:17;18.00;1.00
20291;DHT22;10304;51.074;13.754;2024-03-25T15:12:46;18.30;1.00
20291;DHT22;10304;51.074;13.754;2024-03-25T15:15:12;18.70;1.00
20291;DHT22;10304;51.074;13.754;2024-03-25T15:17:37;18.70;1.00
20291;DHT22;10304;51.074;13.754;2024-03-25T15:20:04;18.60;1.00
20291;DHT22;10304;51.074;13.754;2024-03-25T15:22:31;18.70;1.00
20291;DHT22;10304;51.074;13.754;2024-03-25T15:24:57;18.70;1.00
20291;DHT22;10304;51.074;13.754;2024-03-25T15:27:23;18.80;1.00
20291;DHT22;10304;51.074;13.754;2024-03-25T15:29:49;18.80;1.00
20291;DHT22;10304;51.074;13.754;2024-03-25T15:32:14;18.90;1.00
20291;DHT22;10304;51.074;13.754;2024-03-25T15:34:41;18.80;1.00
20291;DHT22;10304;51.074;13.754;2024-03-25T15:37:07;19.00;1.00